Time;durP1;ratioP1;P1;durP2;ratioP2;P2;SDS_P1;SDS_P2;PMS_P1;PMS_P2;Temp;Humidity;BMP_temperature;BMP_pressure;BME280_temperature;BME280_humidity;BME280_pressure;Samples;Min_cycle;Max_cycle;Signal;HPM_P1;HPM_P2
2022/05/07 00:00:41;;;;;;;5.73;3.73;;;;;;;7.84;nan;101518.78;4974667;28;20149;-77
2022/05/07 00:03:08;;;;;;;6.87;4.77;;;;;;;7.85;nan;101517.91;4966017;28;20145;-78
2022/05/07 00:05:37;;;;;;;7.17;4.97;;;;;;;7.84;nan;101523.16;4979120;28;20045;-79
2022/05/07 00:08:05;;;;;;;5.90;4.17;;;;;;;7.84;nan;101518.78;4968481;28;20041;-78
2022/05/07 00:10:36;;;;;;;7.03;4.77;;;;;;;7.87;nan;101517.91;4980988;28;20048;-79
2022/05/07 00:13:04;;;;;;;5.60;4.37;;;;;;;7.88;nan;101512.63;4986763;28;20510;-79
2022/05/07 00:15:34;;;;;;;7.07;4.13;;;;;;;7.92;nan;101503.03;4988892;28;20039;-79
2022/05/07 00:18:01;;;;;;;4.43;3.80;;;;;;;7.92;nan;101515.31;4986825;28;20042;-78
2022/05/07 00:20:38;;;;;;;5.17;3.67;;;;;;;7.94;nan;101509.16;4974171;28;20056;-80
2022/05/07 00:23:05;;;;;;;4.93;4.03;;;;;;;7.92;nan;101505.66;4962533;28;20050;-80
2022/05/07 00:25:32;;;;;;;5.17;4.10;;;;;;;7.90;nan;101507.38;4960876;28;20040;-80
2022/05/07 00:27:59;;;;;;;5.83;3.97;;;;;;;7.90;nan;101508.28;4979077;28;20031;-80
2022/05/07 00:30:26;;;;;;;5.60;3.83;;;;;;;7.92;nan;101504.78;4978888;28;20073;-79
2022/05/07 00:32:52;;;;;;;4.87;3.80;;;;;;;7.88;nan;101509.13;4973147;28;20039;-80
2022/05/07 00:35:19;;;;;;;5.10;3.83;;;;;;;7.91;nan;101506.53;4981502;28;20034;-78
2022/05/07 00:37:46;;;;;;;6.73;4.33;;;;;;;7.92;nan;101504.78;4975918;28;20042;-78
2022/05/07 00:40:13;;;;;;;5.10;4.07;;;;;;;7.87;nan;101500.38;4966095;28;20620;-78
2022/05/07 00:42:40;;;;;;;5.27;4.37;;;;;;;7.85;nan;101503.88;4965683;28;20046;-78
2022/05/07 00:45:08;;;;;;;5.67;4.50;;;;;;;7.83;nan;101500.38;4978023;28;20042;-79
2022/05/07 00:47:35;;;;;;;4.17;3.60;;;;;;;7.79;nan;101498.56;4974632;28;20045;-79
2022/05/07 00:52:49;;;;;;;5.53;4.17;;;;;;;7.67;nan;101493.28;4995629;28;20102;-80
2022/05/07 00:55:16;;;;;;;4.80;3.80;;;;;;;7.61;nan;101489.72;4957844;28;20098;-79
2022/05/07 00:57:43;;;;;;;5.30;3.87;;;;;;;7.57;nan;101494.97;4995862;28;20038;-79
2022/05/07 01:00:11;;;;;;;5.10;4.03;;;;;;;7.51;nan;101492.31;4977904;28;20495;-79
2022/05/07 01:02:38;;;;;;;5.57;4.10;;;;;;;7.43;nan;101491.38;4995179;28;20638;-79
2022/05/07 01:05:06;;;;;;;5.93;4.47;;;;;;;7.40;nan;101484.38;4977834;28;20103;-80
2022/05/07 01:07:34;;;;;;;5.97;3.90;;;;;;;7.38;nan;101490.47;4990241;28;20125;-80
2022/05/07 01:10:03;;;;;;;5.63;4.00;;;;;;;7.34;nan;101484.34;4990637;28;20142;-79
2022/05/07 01:12:30;;;;;;;5.03;4.03;;;;;;;7.30;nan;101480.78;4992202;28;21044;-80
2022/05/07 01:14:58;;;;;;;5.90;4.20;;;;;;;7.30;nan;101478.16;4989638;28;20456;-79
2022/05/07 01:17:26;;;;;;;5.77;4.40;;;;;;;7.34;nan;101482.56;4979646;28;20102;-79
2022/05/07 01:19:54;;;;;;;5.80;4.70;;;;;;;7.38;nan;101479.97;4979117;28;20105;-79
2022/05/07 01:22:24;;;;;;;6.40;4.90;;;;;;;7.40;nan;101478.22;4957474;28;20474;-79
2022/05/07 01:24:51;;;;;;;5.83;5.00;;;;;;;7.41;nan;101480.00;4974392;28;20074;-79
2022/05/07 01:27:18;;;;;;;5.47;4.30;;;;;;;7.44;nan;101469.47;4971297;28;20038;-80
2022/05/07 01:29:46;;;;;;;4.93;4.10;;;;;;;7.45;nan;101474.75;4976507;28;20030;-79
2022/05/07 01:32:20;;;;;;;5.77;4.33;;;;;;;7.51;nan;101469.53;4975517;28;20390;-78
2022/05/07 01:34:47;;;;;;;5.43;4.10;;;;;;;7.51;nan;101468.66;4987837;28;20481;-80
2022/05/07 01:37:14;;;;;;;5.80;4.17;;;;;;;7.53;nan;101466.91;4974031;28;20035;-79
2022/05/07 01:39:41;;;;;;;6.20;4.43;;;;;;;7.56;nan;101465.16;4991740;28;20043;-79
2022/05/07 01:42:08;;;;;;;6.57;4.70;;;;;;;7.60;nan;101460.81;4974769;28;20518;-78
2022/05/07 01:44:37;;;;;;;6.80;5.17;;;;;;;7.61;nan;101458.16;4956700;28;20046;-79
2022/05/07 01:49:50;;;;;;;6.30;4.73;;;;;;;7.79;nan;101457.38;4993756;28;20113;-79
2022/05/07 01:52:17;;;;;;;6.97;5.27;;;;;;;7.76;nan;101472.28;4989085;28;20057;-79
2022/05/07 01:54:44;;;;;;;6.53;4.97;;;;;;;7.71;nan;101468.72;4981802;28;20222;-78
2022/05/07 01:57:11;;;;;;;5.93;5.03;;;;;;;7.67;nan;101467.84;4994419;28;20153;-79
2022/05/07 01:59:38;;;;;;;6.33;4.83;;;;;;;7.63;nan;101472.19;4962672;28;20026;-79
2022/05/07 02:02:05;;;;;;;6.37;5.20;;;;;;;7.57;nan;101476.56;4993691;28;20092;-78
2022/05/07 02:04:33;;;;;;;6.40;4.67;;;;;;;7.45;nan;101472.13;4963360;28;20049;-79
2022/05/07 02:06:59;;;;;;;6.03;5.10;;;;;;;7.38;nan;101469.44;4988494;28;20072;-80
2022/05/07 02:09:26;;;;;;;8.60;5.47;;;;;;;7.29;nan;101472.91;4996242;28;20092;-79
2022/05/07 02:11:53;;;;;;;5.73;4.57;;;;;;;7.23;nan;101473.75;5001878;23;20295;-76
2022/05/07 02:14:20;;;;;;;5.90;4.83;;;;;;;7.15;nan;101470.22;4924597;28;20491;-78
2022/05/07 02:16:47;;;;;;;5.77;4.70;;;;;;;7.08;nan;101465.78;4931991;29;20038;-77
2022/05/07 02:19:14;;;;;;;6.60;4.50;;;;;;;7.04;nan;101463.97;4908855;29;20042;-77
2022/05/07 02:21:41;;;;;;;6.10;4.60;;;;;;;6.96;nan;101463.03;4932651;29;20523;-76
2022/05/07 02:24:08;;;;;;;5.97;5.00;;;;;;;6.91;nan;101460.41;4952110;28;20031;-78
2022/05/07 02:26:35;;;;;;;4.80;4.30;;;;;;;6.86;nan;101454.22;4933369;28;20032;-79
2022/05/07 02:29:02;;;;;;;6.20;4.60;;;;;;;6.87;nan;101455.97;4946855;28;20720;-78
2022/05/07 02:31:29;;;;;;;6.60;5.07;;;;;;;6.84;nan;101458.59;4936319;29;20042;-79
2022/05/07 02:33:56;;;;;;;6.80;4.90;;;;;;;6.76;nan;101458.53;4931864;28;20070;-80
2022/05/07 02:36:23;;;;;;;6.10;4.90;;;;;;;6.72;nan;101454.09;4930333;29;20035;-79
2022/05/07 02:38:50;;;;;;;8.03;6.13;;;;;;;6.69;nan;101453.22;4929239;29;20036;-79
2022/05/07 02:44:04;;;;;;;7.27;5.70;;;;;;;6.57;nan;101461.00;4929760;28;20054;-79
2022/05/07 02:46:31;;;;;;;8.93;6.17;;;;;;;6.56;nan;101453.97;4938508;29;20039;-79
2022/05/07 02:48:58;;;;;;;8.73;6.40;;;;;;;6.54;nan;101455.69;4949747;28;20038;-77
2022/05/07 02:51:24;;;;;;;9.87;5.93;;;;;;;6.48;nan;101457.44;4931797;29;20050;-80
2022/05/07 02:53:51;;;;;;;12.97;6.07;;;;;;;6.44;nan;101455.63;4922816;29;20066;-79
2022/05/07 02:56:18;;;;;;;9.10;5.90;;;;;;;6.40;nan;101458.22;4947693;28;20054;-78
2022/05/07 02:58:45;;;;;;;7.63;5.40;;;;;;;6.37;nan;101459.06;4931311;29;20046;-79
2022/05/07 03:01:12;;;;;;;6.77;5.20;;;;;;;6.34;nan;101455.53;4931352;29;20043;-78
2022/05/07 03:03:39;;;;;;;7.40;5.33;;;;;;;6.34;nan;101458.16;4946797;28;20050;-79
2022/05/07 03:06:06;;;;;;;8.00;5.53;;;;;;;6.29;nan;101467.72;4939032;29;20507;-79
2022/05/07 03:08:33;;;;;;;8.83;5.80;;;;;;;6.22;nan;101469.41;4931921;29;20040;-80
2022/05/07 03:11:00;;;;;;;7.60;5.50;;;;;;;6.18;nan;101465.88;4935105;28;20050;-80
2022/05/07 03:13:27;;;;;;;6.67;5.03;;;;;;;6.14;nan;101469.34;4949972;28;20051;-79
2022/05/07 03:15:54;;;;;;;8.03;5.47;;;;;;;6.11;nan;101466.66;4929973;29;20058;-77
2022/05/07 03:18:23;;;;;;;9.00;5.20;;;;;;;6.07;nan;101469.25;4941805;29;20040;-80
2022/05/07 03:20:50;;;;;;;7.53;5.10;;;;;;;6.02;nan;101461.31;4937484;28;20062;-80
2022/05/07 03:23:17;;;;;;;8.33;5.00;;;;;;;6.02;nan;101460.44;4919859;29;20153;-79
2022/05/07 03:25:45;;;;;;;6.33;4.73;;;;;;;6.01;nan;101459.56;4926823;29;20044;-80
2022/05/07 03:28:12;;;;;;;5.67;4.60;;;;;;;6.01;nan;101459.56;4930231;28;20032;-79
2022/05/07 03:30:39;;;;;;;7.47;5.40;;;;;;;6.03;nan;101463.09;4933728;29;20035;-80
2022/05/07 03:33:07;;;;;;;7.00;5.80;;;;;;;6.03;nan;101455.22;4961601;28;20043;-79
2022/05/07 03:35:34;;;;;;;6.73;5.37;;;;;;;6.07;nan;101451.78;4935079;29;20642;-80
2022/05/07 03:38:01;;;;;;;9.37;6.13;;;;;;;6.11;nan;101448.31;4969222;28;20028;-81
2022/05/07 03:40:28;;;;;;;8.43;5.47;;;;;;;6.12;nan;101454.44;4960339;28;20049;-79
2022/05/07 03:42:55;;;;;;;8.37;5.80;;;;;;;6.15;nan;101449.22;4945969;28;20497;-80
2022/05/07 03:45:23;;;;;;;8.17;6.13;;;;;;;6.17;nan;101453.63;4945561;29;20039;-79
2022/05/07 03:47:50;;;;;;;7.90;5.50;;;;;;;6.24;nan;101457.19;4932318;28;20043;-78
2022/05/07 03:50:17;;;;;;;10.30;6.37;;;;;;;6.32;nan;101452.03;4930942;29;20039;-79
2022/05/07 03:55:30;;;;;;;8.07;6.23;;;;;;;6.47;nan;101457.38;4976104;28;20122;-80
2022/05/07 03:57:57;;;;;;;8.77;6.40;;;;;;;6.55;nan;101453.09;4917430;29;20446;-79
2022/05/07 04:00:24;;;;;;;8.20;6.03;;;;;;;6.60;nan;101448.75;4961129;28;20492;-81
2022/05/07 04:02:51;;;;;;;7.87;6.40;;;;;;;6.69;nan;101446.22;4940477;29;20039;-79
2022/05/07 04:05:17;;;;;;;7.03;5.37;;;;;;;6.73;nan;101453.25;4939468;29;20415;-80
2022/05/07 04:07:44;;;;;;;7.90;5.63;;;;;;;6.80;nan;101454.16;4947720;28;20044;-79
2022/05/07 04:10:11;;;;;;;7.73;5.63;;;;;;;6.89;nan;101456.84;4938434;29;20043;-78
2022/05/07 04:12:45;;;;;;;7.90;6.40;;;;;;;7.00;nan;101454.34;4940530;28;20069;-79
2022/05/07 04:15:12;;;;;;;9.27;6.32;;;;;;;7.07;nan;101461.41;4942014;29;20050;-79
2022/05/07 04:17:39;;;;;;;6.90;5.63;;;;;;;7.08;nan;101465.78;4940398;28;20055;-79
2022/05/07 04:20:06;;;;;;;8.07;6.03;;;;;;;7.19;nan;101463.22;4935482;28;20054;-80
2022/05/07 04:22:34;;;;;;;7.60;6.23;;;;;;;7.22;nan;101458.84;4925878;29;20428;-78
2022/05/07 04:25:01;;;;;;;8.57;6.00;;;;;;;7.37;nan;101463.31;4966599;28;20044;-79
2022/05/07 04:27:28;;;;;;;8.60;6.17;;;;;;;7.42;nan;101463.34;4928472;29;20412;-79
2022/05/07 04:29:57;;;;;;;8.17;5.73;;;;;;;7.47;nan;101467.72;4957133;28;20439;-79
2022/05/07 04:32:26;;;;;;;9.63;6.50;;;;;;;7.54;nan;101461.63;4958453;28;20649;-79
2022/05/07 04:34:55;;;;;;;8.40;6.20;;;;;;;7.63;nan;101459.06;4928211;29;20082;-80
2022/05/07 04:37:22;;;;;;;7.83;5.70;;;;;;;7.66;nan;101459.97;4935478;28;20709;-79
2022/05/07 04:39:49;;;;;;;7.47;6.00;;;;;;;7.74;nan;101456.50;4929153;29;21224;-77
2022/05/07 04:42:16;;;;;;;8.70;6.30;;;;;;;7.78;nan;101452.97;4949437;28;20054;-78
2022/05/07 04:44:43;;;;;;;7.60;5.30;;;;;;;7.87;nan;101450.38;4938310;29;20039;-80
2022/05/07 04:47:10;;;;;;;6.50;5.80;;;;;;;7.96;nan;101449.53;4939583;29;20092;-79
2022/05/07 04:49:37;;;;;;;8.50;6.03;;;;;;;8.05;nan;101461.81;4942596;28;20058;-78
2022/05/07 04:52:07;;;;;;;7.87;6.57;;;;;;;8.15;nan;101460.97;4958808;28;20278;-78
2022/05/07 04:54:34;;;;;;;7.97;6.30;;;;;;;8.27;nan;101460.13;4956257;28;20031;-78
2022/05/07 04:57:02;;;;;;;8.07;6.77;;;;;;;8.43;nan;101459.31;4937355;29;20489;-79
2022/05/07 04:59:29;;;;;;;8.50;7.17;;;;;;;8.39;nan;101463.69;4934216;28;20036;-79
2022/05/07 05:01:56;;;;;;;7.47;6.17;;;;;;;8.42;nan;101462.84;4941152;28;20054;-79
2022/05/07 05:04:23;;;;;;;7.10;5.20;;;;;;;8.49;nan;101461.94;4967155;28;20035;-78
2022/05/07 05:06:50;;;;;;;8.93;6.10;;;;;;;8.57;nan;101462.81;4933829;29;20040;-80
2022/05/07 05:09:17;;;;;;;5.93;5.27;;;;;;;8.69;nan;101459.31;4960030;28;20070;-77
2022/05/07 05:11:43;;;;;;;8.33;6.23;;;;;;;8.79;nan;101458.44;4951459;28;20061;-80
2022/05/07 05:16:56;;;;;;;7.25;5.90;;;;;;;8.96;nan;101464.56;4947609;28;20036;-80
2022/05/07 05:19:23;;;;;;;7.93;5.80;;;;;;;9.06;nan;101468.06;4939459;28;20447;-78
2022/05/07 05:21:50;;;;;;;6.95;5.50;;;;;;;9.17;nan;101460.16;4951641;29;20031;-79
2022/05/07 05:24:17;;;;;;;6.90;5.20;;;;;;;9.29;nan;101461.00;4950882;28;20047;-78
2022/05/07 05:26:44;;;;;;;7.85;5.25;;;;;;;9.39;nan;101460.97;4932530;29;20069;-78
2022/05/07 05:29:11;;;;;;;7.75;5.60;;;;;;;9.47;nan;101461.84;4966410;28;20493;-78
2022/05/07 05:31:38;;;;;;;6.70;5.45;;;;;;;9.56;nan;101467.06;4932093;29;20493;-80
2022/05/07 05:34:06;;;;;;;6.47;5.72;;;;;;;9.64;nan;101467.94;4962909;28;20425;-79
2022/05/07 05:36:33;;;;;;;7.65;6.10;;;;;;;9.72;nan;101459.97;4945760;28;20066;-78
2022/05/07 05:39:00;;;;;;;8.63;6.03;;;;;;;9.83;nan;101468.72;4937427;28;20393;-79
2022/05/07 05:41:27;;;;;;;6.63;5.55;;;;;;;9.95;nan;101471.31;4949448;28;20573;-78
2022/05/07 05:43:54;;;;;;;7.45;5.78;;;;;;;10.07;nan;101467.72;4924047;29;20044;-79
2022/05/07 05:46:21;;;;;;;6.30;5.35;;;;;;;10.19;nan;101474.72;4933198;29;20031;-79
2022/05/07 05:48:48;;;;;;;7.07;5.70;;;;;;;10.31;nan;101474.66;4955128;28;20039;-79
2022/05/07 05:51:15;;;;;;;8.52;6.03;;;;;;;10.45;nan;101475.47;4949067;29;20032;-79
2022/05/07 05:53:42;;;;;;;7.05;6.35;;;;;;;10.59;nan;101481.50;4912185;29;20562;-77
2022/05/07 05:56:08;;;;;;;10.32;6.80;;;;;;;10.77;nan;101480.50;4934298;29;20039;-78
2022/05/07 05:58:35;;;;;;;10.00;6.95;;;;;;;10.92;nan;101483.00;4923005;29;20472;-78
2022/05/07 06:01:03;;;;;;;8.13;6.55;;;;;;;10.96;nan;101483.88;4963045;28;20672;-79
2022/05/07 06:03:31;;;;;;;8.95;6.88;;;;;;;11.08;nan;101483.75;4962502;28;20039;-78
2022/05/07 06:05:58;;;;;;;9.93;7.35;;;;;;;11.25;nan;101492.38;4927654;29;20035;-78
2022/05/07 06:08:24;;;;;;;8.65;6.80;;;;;;;11.37;nan;101482.59;4961662;28;20039;-77
2022/05/07 06:10:54;;;;;;;8.52;7.15;;;;;;;11.55;nan;101485.91;4943002;28;20507;-78
2022/05/07 06:13:21;;;;;;;8.60;7.20;;;;;;;11.73;nan;101484.81;4962131;28;20039;-78
2022/05/07 06:15:51;;;;;;;9.25;7.13;;;;;;;11.88;nan;101490.84;4956000;28;20399;-78
2022/05/07 06:18:19;;;;;;;23.50;8.48;;;;;;;12.18;nan;101484.25;4964221;28;20038;-78
2022/05/07 06:20:47;;;;;;;41.45;12.43;;;;;;;12.45;nan;101480.34;4952500;28;20047;-78
2022/05/07 06:23:15;;;;;;;22.90;8.20;;;;;;;12.72;nan;101477.28;4967840;28;20377;-78
2022/05/07 06:28:28;;;;;;;8.48;6.30;;;;;;;13.46;nan;101474.22;4962491;28;20035;-78
2022/05/07 06:30:55;;;;;;;7.80;5.97;;;;;;;13.86;nan;101478.72;4970633;28;20031;-78
2022/05/07 06:33:22;;;;;;;7.82;6.00;;;;;;;14.37;nan;101480.22;4971012;28;20404;-78
2022/05/07 06:35:49;;;;;;;11.18;6.68;;;;;;;14.96;nan;101478.84;4953801;28;20049;-78
2022/05/07 06:38:16;;;;;;;7.10;5.80;;;;;;;15.26;nan;101471.84;4952507;28;20042;-77
2022/05/07 06:40:42;;;;;;;8.70;6.20;;;;;;;15.51;nan;101472.91;4971880;28;20030;-77
2022/05/07 06:43:10;;;;;;;7.50;6.18;;;;;;;15.83;nan;101477.38;4968166;28;20039;-77
2022/05/07 06:45:38;;;;;;;6.97;6.25;;;;;;;16.05;nan;101478.47;4958203;28;20046;-77
2022/05/07 06:48:08;;;;;;;5.72;5.00;;;;;;;16.36;nan;101469.53;4976741;28;20395;-77
2022/05/07 06:50:35;;;;;;;6.63;5.28;;;;;;;16.51;nan;101470.84;4972226;28;20030;-77
2022/05/07 06:53:02;;;;;;;7.28;5.88;;;;;;;16.57;nan;101470.66;4969635;28;20031;-78
2022/05/07 06:55:33;;;;;;;18.98;7.63;;;;;;;16.58;nan;101470.59;4971268;28;20492;-77
2022/05/07 06:58:00;;;;;;;6.05;5.22;;;;;;;16.76;nan;101469.16;4952368;28;20031;-77
2022/05/07 07:00:46;;;;;;;11.15;6.03;;;;;;;16.80;nan;101470.78;4967906;28;20411;-77
2022/05/07 07:03:14;;;;;;;7.32;5.72;;;;;;;16.91;nan;101473.13;4965423;28;20043;-78
2022/05/07 07:05:42;;;;;;;8.50;5.88;;;;;;;16.82;nan;101468.97;4970907;28;20042;-77
2022/05/07 07:08:11;;;;;;;6.47;5.30;;;;;;;16.76;nan;101470.94;4947970;28;20035;-78
2022/05/07 07:10:40;;;;;;;7.07;5.40;;;;;;;16.67;nan;101471.22;4970651;28;20064;-78
2022/05/07 07:13:07;;;;;;;6.30;5.70;;;;;;;17.08;nan;101467.19;4968741;28;20395;-77
2022/05/07 07:15:36;;;;;;;6.72;5.82;;;;;;;17.59;nan;101472.47;4967750;28;20560;-77
2022/05/07 07:18:06;;;;;;;8.57;5.63;;;;;;;18.13;nan;101470.47;4952500;28;20065;-77
2022/05/07 07:20:34;;;;;;;8.20;5.38;;;;;;;18.90;nan;101462.91;4955663;28;20057;-83
2022/05/07 07:23:01;;;;;;;7.15;5.68;;;;;;;19.07;nan;101463.06;4972737;28;20511;-77
2022/05/07 07:25:28;;;;;;;6.13;4.95;;;;;;;19.38;nan;101466.16;4939897;28;20061;-77
2022/05/07 07:27:55;;;;;;;6.38;5.35;;;;;;;19.47;nan;101474.72;4969111;28;20039;-79
2022/05/07 07:30:22;;;;;;;6.32;5.53;;;;;;;19.48;nan;101474.66;4942678;28;20526;-79
2022/05/07 07:32:49;;;;;;;6.72;5.15;;;;;;;19.50;nan;101472.75;4970830;28;20042;-79
2022/05/07 07:35:16;;;;;;;5.68;4.88;;;;;;;19.82;nan;101463.31;4969249;28;20349;-81
2022/05/07 07:37:45;;;;;;;6.30;5.15;;;;;;;20.20;nan;101472.25;4950029;28;20479;-78
2022/05/07 07:40:13;;;;;;;7.68;5.60;;;;;;;20.11;nan;101461.97;4971677;28;20031;-79
2022/05/07 07:42:43;;;;;;;6.40;4.72;;;;;;;20.32;nan;101464.53;4966998;28;20039;-77
2022/05/07 07:48:00;;;;;;;6.63;5.13;;;;;;;20.50;nan;101459.19;4944612;28;20046;-78
2022/05/07 07:50:30;;;;;;;6.93;5.72;;;;;;;20.57;nan;101470.50;4954988;28;20042;-79
2022/05/07 07:52:59;;;;;;;4.95;4.55;;;;;;;20.62;nan;101460.41;4951433;28;20039;-79
2022/05/07 07:55:27;;;;;;;7.55;5.15;;;;;;;21.11;nan;101474.03;4968665;28;20058;-79
2022/05/07 07:57:55;;;;;;;6.93;5.28;;;;;;;21.18;nan;101463.81;4943514;28;20041;-78
2022/05/07 08:00:35;;;;;;;6.32;5.47;;;;;;;21.42;nan;101470.63;4951228;28;20102;-77
2022/05/07 08:03:19;;;;;;;7.38;4.78;;;;;;;21.42;nan;101476.03;4967396;28;20031;-77
2022/05/07 08:05:48;;;;;;;6.15;5.55;;;;;;;21.15;nan;101470.25;4955798;28;20675;-78
2022/05/07 08:13:48;;;;;;;6.28;4.20;;;;;;;21.08;nan;101474.19;4969651;28;20039;-78
2022/05/07 08:16:17;;;;;;;18.35;5.18;;;;;;;20.83;nan;101481.75;4954830;28;20484;-77
2022/05/07 08:18:46;;;;;;;4.80;3.85;;;;;;;20.98;nan;101481.84;4951531;28;20034;-79
2022/05/07 08:21:13;;;;;;;48.80;10.18;;;;;;;21.14;nan;101484.63;4955524;28;20041;-78
2022/05/07 08:23:40;;;;;;;10.23;5.00;;;;;;;20.91;nan;101483.09;4955787;28;20038;-76
2022/05/07 08:26:08;;;;;;;7.07;5.10;;;;;;;21.33;nan;101485.44;4970552;28;20046;-77
2022/05/07 08:28:37;;;;;;;5.93;4.47;;;;;;;21.60;nan;101495.69;4971094;28;20045;-76
2022/05/07 08:31:04;;;;;;;6.35;5.20;;;;;;;21.34;nan;101480.94;4944872;28;20057;-79
2022/05/07 08:33:32;;;;;;;5.50;4.82;;;;;;;21.15;nan;101480.97;4968924;28;20377;-77
2022/05/07 08:36:00;;;;;;;5.90;4.38;;;;;;;20.98;nan;101479.16;4969699;28;20038;-77
2022/05/07 08:38:27;;;;;;;6.45;4.28;;;;;;;20.78;nan;101476.63;4960317;28;20053;-78
2022/05/07 08:40:54;;;;;;;6.63;4.85;;;;;;;20.53;nan;101485.03;4972484;28;20085;-77
2022/05/07 08:43:21;;;;;;;4.70;4.20;;;;;;;20.39;nan;101484.78;4970293;28;20034;-75
2022/05/07 08:45:48;;;;;;;5.05;4.47;;;;;;;20.48;nan;101479.88;4971946;28;20043;-78
2022/05/07 08:48:15;;;;;;;6.95;4.47;;;;;;;20.78;nan;101479.31;4971000;28;20047;-77
2022/05/07 08:50:44;;;;;;;6.60;3.95;;;;;;;21.41;nan;101476.09;4968833;28;20038;-79
2022/05/07 08:53:11;;;;;;;5.15;4.07;;;;;;;21.79;nan;101483.00;4957535;28;20556;-78
2022/05/07 08:55:38;;;;;;;5.70;4.70;;;;;;;21.88;nan;101477.13;4966936;28;20049;-78
2022/05/07 08:58:05;;;;;;;7.20;5.07;;;;;;;22.26;nan;101481.34;4958822;28;20031;-79
2022/05/07 09:00:33;;;;;;;6.15;4.35;;;;;;;22.69;nan;101480.63;4974434;28;20045;-79
2022/05/07 09:03:01;;;;;;;7.03;4.57;;;;;;;22.77;nan;101474.78;4961735;28;20042;-78
2022/05/07 09:05:36;;;;;;;4.95;4.35;;;;;;;23.19;nan;101479.50;4975963;28;20049;-77
2022/05/07 09:08:04;;;;;;;5.60;4.60;;;;;;;23.06;nan;101480.34;4971194;28;20064;-77
2022/05/07 09:10:36;;;;;;;7.75;4.43;;;;;;;23.14;nan;101488.84;4958855;28;20038;-76
2022/05/07 09:13:14;;;;;;;7.70;4.90;;;;;;;22.81;nan;101484.44;4976517;28;20048;-78
2022/05/07 09:15:56;;;;;;;5.47;4.60;;;;;;;22.42;nan;101491.16;4961226;28;20073;-78
2022/05/07 09:18:24;;;;;;;6.70;4.72;;;;;;;22.38;nan;101491.44;4980066;28;20034;-78
2022/05/07 09:21:16;;;;;;;8.30;4.72;;;;;;;22.29;nan;101492.84;4957904;28;20035;-79
2022/05/07 09:24:06;;;;;;;5.43;4.38;;;;;;;22.10;nan;101481.34;4974336;28;20042;-76
2022/05/07 09:26:39;;;;;;;5.03;4.28;;;;;;;22.73;nan;101478.66;4973059;28;20049;-78
2022/05/07 09:29:09;;;;;;;5.55;4.30;;;;;;;22.55;nan;101479.72;4972916;28;20530;-76
2022/05/07 09:31:37;;;;;;;21.67;6.68;;;;;;;22.81;nan;101478.19;4959106;28;20109;-77
2022/05/07 09:36:58;;;;;;;5.95;4.50;;;;;;;22.63;nan;101470.22;4966433;28;20046;-77
2022/05/07 09:39:32;;;;;;;4.80;4.30;;;;;;;22.94;nan;101468.44;4957033;28;20055;-76
2022/05/07 09:42:01;;;;;;;5.13;4.00;;;;;;;23.05;nan;101457.06;4958017;28;20034;-77
2022/05/07 09:44:28;;;;;;;5.68;4.32;;;;;;;23.22;nan;101465.00;4973966;28;20130;-78
2022/05/07 09:46:56;;;;;;;5.13;4.55;;;;;;;23.06;nan;101466.88;4957087;28;20042;-79
2022/05/07 09:49:28;;;;;;;5.55;4.00;;;;;;;23.15;nan;101466.31;4958412;28;20085;-78
2022/05/07 09:51:55;;;;;;;7.88;4.20;;;;;;;23.68;nan;101464.88;4975272;28;20038;-76
2022/05/07 09:59:55;;;;;;;5.33;4.23;;;;;;;23.15;nan;101461.78;4976290;28;20038;-78
2022/05/07 10:02:49;;;;;;;5.93;3.97;;;;;;;22.73;nan;101466.03;4975080;28;20087;-78
2022/05/07 10:05:33;;;;;;;5.13;4.10;;;;;;;22.50;nan;101479.97;4973109;28;20034;-78
2022/05/07 10:08:38;;;;;;;11.38;4.05;;;;;;;22.07;nan;101462.66;4955197;28;20520;-76
2022/05/07 10:11:06;;;;;;;7.28;4.85;;;;;;;21.71;nan;101463.72;4972827;28;20034;-78
2022/05/07 10:13:33;;;;;;;5.82;4.35;;;;;;;21.92;nan;101467.06;4957393;28;20403;-77
2022/05/07 10:16:01;;;;;;;5.22;3.53;;;;;;;21.79;nan;101469.56;4974587;28;20031;-77
2022/05/07 10:18:35;;;;;;;5.68;4.20;;;;;;;22.01;nan;101471.91;4975149;28;20656;-76
2022/05/07 10:21:16;;;;;;;4.95;3.70;;;;;;;22.11;nan;101459.75;4959320;28;20035;-76
2022/05/07 10:23:53;;;;;;;49.95;9.88;;;;;;;22.12;nan;101463.31;4960737;28;20030;-76
2022/05/07 10:26:36;;;;;;;5.97;3.95;;;;;;;22.48;nan;101455.81;4975739;28;20047;-78
2022/05/07 10:29:04;;;;;;;5.22;3.63;;;;;;;23.28;nan;101454.69;4971719;28;20043;-78
2022/05/07 10:31:44;;;;;;;6.50;3.90;;;;;;;24.05;nan;101458.91;4958423;28;20526;-77
2022/05/07 10:34:24;;;;;;;6.00;4.47;;;;;;;24.20;nan;101445.34;4938280;28;20035;-76
2022/05/07 10:37:07;;;;;;;7.20;4.88;;;;;;;24.36;nan;101451.50;4950523;28;20047;-77
2022/05/07 10:39:36;;;;;;;5.78;4.20;;;;;;;24.01;nan;101438.44;4953189;28;20411;-76
2022/05/07 10:42:14;;;;;;;3.83;3.28;;;;;;;24.37;nan;101439.75;4954194;28;20026;-78
2022/05/07 10:44:41;;;;;;;6.65;4.03;;;;;;;24.60;nan;101438.22;4946118;28;20039;-77
2022/05/07 10:47:19;;;;;;;7.57;4.95;;;;;;;24.76;nan;101433.53;4953956;28;20038;-78
2022/05/07 10:49:53;;;;;;;6.55;4.68;;;;;;;24.95;nan;101427.72;4972849;28;20038;-77
2022/05/07 10:52:30;;;;;;;18.63;5.65;;;;;;;24.99;nan;101429.25;4966227;28;20035;-76
2022/05/07 10:55:07;;;;;;;4.90;3.92;;;;;;;24.30;nan;101441.97;4953306;28;20045;-76
2022/05/07 10:58:01;;;;;;;5.75;3.72;;;;;;;23.65;nan;101440.81;4967327;28;20051;-77
2022/05/07 11:00:28;;;;;;;35.15;7.28;;;;;;;22.91;nan;101439.88;4950288;28;20054;-76
2022/05/07 11:02:58;;;;;;;6.18;3.83;;;;;;;22.69;nan;101437.53;4969675;28;20488;-77
2022/05/07 11:05:29;;;;;;;5.13;3.67;;;;;;;22.13;nan;101438.13;4968299;28;20038;-78
2022/05/07 11:07:58;;;;;;;4.40;2.88;;;;;;;21.83;nan;101446.91;4972138;28;20046;-76
2022/05/07 11:10:25;;;;;;;114.93;18.77;;;;;;;21.60;nan;101447.28;4959141;28;21010;-78
2022/05/07 11:12:52;;;;;;;3.75;3.30;;;;;;;21.40;nan;101448.34;4934695;28;20459;-77
2022/05/07 11:15:24;;;;;;;4.32;3.83;;;;;;;21.35;nan;101451.28;4952033;28;20043;-77
2022/05/07 11:17:51;;;;;;;4.05;3.65;;;;;;;21.51;nan;101442.41;4966114;28;20047;-76
2022/05/07 11:20:29;;;;;;;4.13;3.47;;;;;;;22.00;nan;101437.03;4953963;28;20411;-76
2022/05/07 11:23:03;;;;;;;5.90;3.63;;;;;;;21.64;nan;101438.09;4963117;28;20031;-76
2022/05/07 11:25:30;;;;;;;5.57;3.60;;;;;;;21.64;nan;101447.03;4968848;28;20905;-76
2022/05/07 11:27:58;;;;;;;3.38;3.05;;;;;;;21.89;nan;101437.63;4965538;28;20039;-76
2022/05/07 11:30:25;;;;;;;4.65;3.72;;;;;;;22.11;nan;101437.31;4967219;28;20056;-77
2022/05/07 11:32:54;;;;;;;105.47;17.02;;;;;;;22.26;nan;101438.28;4971499;28;20038;-77
2022/05/07 11:35:24;;;;;;;6.63;3.55;;;;;;;21.99;nan;101440.69;4954395;28;20500;-77
2022/05/07 11:37:51;;;;;;;5.38;4.05;;;;;;;21.54;nan;101443.13;4967574;28;20051;-78
2022/05/07 11:40:29;;;;;;;5.40;3.67;;;;;;;21.36;nan;101438.72;4971167;28;20045;-78
2022/05/07 11:45:42;;;;;;;5.22;3.60;;;;;;;20.99;nan;101435.22;4969446;28;20045;-77
2022/05/07 11:48:09;;;;;;;5.35;3.22;;;;;;;21.09;nan;101433.78;4955397;28;20039;-77
2022/05/07 11:50:41;;;;;;;4.63;3.42;;;;;;;21.21;nan;101439.50;4972716;28;20045;-77
2022/05/07 11:53:16;;;;;;;3.47;3.10;;;;;;;21.35;nan;101439.66;4960073;28;20051;-78
2022/05/07 11:55:44;;;;;;;3.88;3.28;;;;;;;21.43;nan;101445.50;4951717;28;20039;-78
2022/05/07 11:58:20;;;;;;;7.20;4.20;;;;;;;21.61;nan;101430.22;4955598;28;20042;-77
2022/05/07 12:00:49;;;;;;;5.00;3.58;;;;;;;22.08;nan;101424.91;4954694;28;20234;-78
2022/05/07 12:03:17;;;;;;;5.90;3.42;;;;;;;22.68;nan;101432.25;4969153;28;20817;-78
2022/05/07 12:05:49;;;;;;;6.63;3.88;;;;;;;23.03;nan;101425.63;4969195;28;20034;-78
2022/05/07 12:08:18;;;;;;;5.55;4.28;;;;;;;23.04;nan;101431.94;4954809;28;20030;-78
2022/05/07 12:10:47;;;;;;;6.05;4.85;;;;;;;22.76;nan;101429.97;4959064;28;20049;-78
2022/05/07 12:13:16;;;;;;;5.82;4.00;;;;;;;22.40;nan;101424.91;4968810;28;20035;-78
2022/05/07 12:18:33;;;;;;;5.78;4.55;;;;;;;22.49;nan;101421.69;4971228;28;20282;-79
2022/05/07 12:21:00;;;;;;;10.75;4.70;;;;;;;22.67;nan;101422.44;4970753;28;20042;-79
2022/05/07 12:29:49;;;;;;;4.20;3.80;;;;;;;23.39;nan;101421.69;4970302;28;20431;-77
2022/05/07 12:31:53;;;;;;;4.43;3.90;;;;;;;22.75;nan;101428.22;4954826;28;20042;-78
2022/05/07 12:34:21;;;;;;;6.82;4.68;;;;;;;22.13;nan;101417.47;4953369;28;20142;-79
2022/05/07 12:36:48;;;;;;;3.78;3.38;;;;;;;22.09;nan;101418.56;4938771;28;20042;-78